createdAt,value
2019-05-10T00:00:08.497Z,10.49
2019-05-10T00:02:55.816Z,10.45
2019-05-10T00:05:43.360Z,10.41
2019-05-10T00:08:30.701Z,10.37
2019-05-10T00:11:19.434Z,10.27
2019-05-10T00:13:54.455Z,10.27
2019-05-10T00:16:25.300Z,10.23
2019-05-10T00:18:54.692Z,10.20
2019-05-10T00:21:24.048Z,10.15
2019-05-10T00:23:53.403Z,10.11
2019-05-10T00:26:22.723Z,10.08
2019-05-10T00:28:52.060Z,10.05
2019-05-10T00:31:21.393Z,10.03
2019-05-10T00:33:50.751Z,10.00
2019-05-10T00:36:20.086Z,9.98
2019-05-10T00:38:49.449Z,9.96
2019-05-10T00:41:18.771Z,9.92
2019-05-10T00:43:48.120Z,9.89
2019-05-10T00:46:17.498Z,9.87
2019-05-10T00:48:46.817Z,9.82
2019-05-10T00:51:16.163Z,9.80
2019-05-10T00:53:45.505Z,9.77
2019-05-10T00:56:14.867Z,9.73
2019-05-10T00:58:44.178Z,9.67
2019-05-10T01:01:13.527Z,9.64
2019-05-10T01:03:42.842Z,9.60
2019-05-10T01:06:12.209Z,9.54
2019-05-10T01:08:41.543Z,9.49
2019-05-10T01:11:10.900Z,9.43
2019-05-10T01:13:40.217Z,9.40
2019-05-10T01:16:09.546Z,9.36
2019-05-10T01:18:38.887Z,9.31
2019-05-10T01:21:08.240Z,9.27
2019-05-10T01:23:37.571Z,9.21
2019-05-10T01:26:06.881Z,9.16
2019-05-10T01:28:36.222Z,9.09
2019-05-10T01:31:05.585Z,9.06
2019-05-10T01:33:34.998Z,8.99
2019-05-10T01:36:04.314Z,8.96
2019-05-10T01:38:33.676Z,8.92
2019-05-10T01:41:03.018Z,8.89
2019-05-10T01:43:32.373Z,8.85
2019-05-10T01:46:01.668Z,8.82
2019-05-10T01:48:31.322Z,8.77
2019-05-10T01:51:00.774Z,8.74
2019-05-10T01:53:30.134Z,8.70
2019-05-10T01:55:59.468Z,8.65
2019-05-10T01:58:28.798Z,8.64
2019-05-10T02:00:58.154Z,8.62
2019-05-10T02:03:27.486Z,8.60
2019-05-10T02:05:56.827Z,8.60
2019-05-10T02:08:26.176Z,8.59
2019-05-10T02:10:55.543Z,8.58
2019-05-10T02:13:24.859Z,8.54
2019-05-10T02:15:54.198Z,8.50
2019-05-10T02:18:23.509Z,8.44
2019-05-10T02:20:52.859Z,8.41
2019-05-10T02:23:22.176Z,8.37
2019-05-10T02:26:07.192Z,8.35
2019-05-10T02:28:22.572Z,8.32
2019-05-10T02:30:51.912Z,8.30
2019-05-10T02:33:21.222Z,8.29
2019-05-10T02:35:50.555Z,8.25
2019-05-10T02:38:19.894Z,8.20
2019-05-10T02:40:49.203Z,8.17
2019-05-10T02:43:18.540Z,8.17
2019-05-10T02:45:47.914Z,8.16
2019-05-10T02:48:17.219Z,8.15
2019-05-10T02:50:46.570Z,8.11
2019-05-10T02:53:16.233Z,8.07
2019-05-10T02:55:46.373Z,8.04
2019-05-10T02:58:16.322Z,8.03
2019-05-10T03:00:48.983Z,7.99
2019-05-10T03:03:20.492Z,7.98
2019-05-10T03:05:52.242Z,7.96
2019-05-10T03:08:23.638Z,7.95
2019-05-10T03:10:57.429Z,7.90
2019-05-10T03:13:31.369Z,7.87
2019-05-10T03:16:04.733Z,7.87
2019-05-10T03:18:34.486Z,7.83
2019-05-10T03:21:09.759Z,7.81
2019-05-10T03:23:39.096Z,7.80
2019-05-10T03:26:08.416Z,7.78
2019-05-10T03:28:37.767Z,7.77
2019-05-10T03:31:07.203Z,7.75
2019-05-10T03:33:36.653Z,7.75
2019-05-10T03:36:06.163Z,7.73
2019-05-10T03:38:35.514Z,7.70
2019-05-10T03:41:04.935Z,7.68
2019-05-10T03:43:34.292Z,7.68
2019-05-10T03:46:03.659Z,7.64
2019-05-10T03:48:33.014Z,7.61
2019-05-10T03:51:02.381Z,7.59
2019-05-10T03:53:31.741Z,7.58
2019-05-10T03:56:01.093Z,7.56
2019-05-10T03:58:30.445Z,7.56
2019-05-10T04:00:59.762Z,7.54
2019-05-10T04:03:29.181Z,7.56
2019-05-10T04:05:58.520Z,7.55
2019-05-10T04:08:27.860Z,7.56
2019-05-10T04:10:57.234Z,7.57
2019-05-10T04:13:26.603Z,7.58
2019-05-10T04:15:56.011Z,7.58
2019-05-10T04:18:25.378Z,7.56
2019-05-10T04:20:54.693Z,7.54
2019-05-10T04:23:24.013Z,7.51
2019-05-10T04:25:53.362Z,7.53
2019-05-10T04:28:22.680Z,7.55
2019-05-10T04:30:52.043Z,7.54
2019-05-10T04:33:21.394Z,7.54
2019-05-10T04:35:50.767Z,7.55
2019-05-10T04:38:20.133Z,7.55
2019-05-10T04:40:49.548Z,7.53
2019-05-10T04:43:18.883Z,7.50
2019-05-10T04:45:48.258Z,7.51
2019-05-10T04:48:17.598Z,7.51
2019-05-10T04:50:49.176Z,7.50
2019-05-10T04:53:18.029Z,7.49
2019-05-10T04:55:47.385Z,7.51
2019-05-10T04:58:16.703Z,7.51
2019-05-10T05:00:46.071Z,7.51
2019-05-10T05:03:15.398Z,7.48
2019-05-10T05:05:44.772Z,7.44
2019-05-10T05:08:14.129Z,7.42
2019-05-10T05:10:43.500Z,7.43
2019-05-10T05:13:12.839Z,7.42
2019-05-10T05:15:42.176Z,7.41
2019-05-10T05:18:11.490Z,7.38
2019-05-10T05:20:40.840Z,7.35
2019-05-10T05:23:10.145Z,7.33
2019-05-10T05:25:40.412Z,7.32
2019-05-10T05:28:10.552Z,7.32
2019-05-10T05:30:39.875Z,7.34
2019-05-10T05:33:09.208Z,7.36
2019-05-10T05:35:38.552Z,7.40
2019-05-10T05:38:07.883Z,7.41
2019-05-10T05:40:37.246Z,7.43
2019-05-10T05:43:08.111Z,7.44
2019-05-10T05:45:37.636Z,7.46
2019-05-10T05:48:06.982Z,7.49
2019-05-10T05:50:36.301Z,7.49
2019-05-10T05:53:05.631Z,7.51
2019-05-10T05:55:35.001Z,7.51
2019-05-10T05:58:05.231Z,7.52
2019-05-10T06:00:37.769Z,7.55
2019-05-10T06:03:06.488Z,7.56
2019-05-10T06:05:37.307Z,7.59
2019-05-10T06:08:21.287Z,7.61
2019-05-10T06:10:37.963Z,7.65
2019-05-10T06:13:07.335Z,7.70
2019-05-10T06:15:36.741Z,7.76
2019-05-10T06:18:09.738Z,7.82
2019-05-10T06:20:38.284Z,7.89
2019-05-10T06:23:08.324Z,7.94
2019-05-10T06:25:40.121Z,8.00
2019-05-10T06:28:25.367Z,8.08
2019-05-10T06:30:39.914Z,8.14
2019-05-10T06:33:12.542Z,8.21
2019-05-10T06:35:40.303Z,8.28
2019-05-10T06:38:09.640Z,8.35
2019-05-10T06:40:46.509Z,8.43
2019-05-10T06:43:13.510Z,8.50
2019-05-10T06:45:41.124Z,8.59
2019-05-10T06:48:10.454Z,8.65
2019-05-10T06:50:39.822Z,8.72
2019-05-10T06:53:10.977Z,8.79
2019-05-10T06:55:40.357Z,8.85
2019-05-10T06:58:09.772Z,8.90
2019-05-10T07:00:45.110Z,8.96
2019-05-10T07:03:10.167Z,9.02
2019-05-10T07:05:39.522Z,9.08
2019-05-10T07:08:16.387Z,9.14
2019-05-10T07:10:39.965Z,9.20
2019-05-10T07:13:09.342Z,9.23
2019-05-10T07:15:42.032Z,9.27
2019-05-10T07:18:09.765Z,9.31
2019-05-10T07:20:42.778Z,9.36
2019-05-10T07:23:10.209Z,9.40
2019-05-10T07:25:43.665Z,9.44
2019-05-10T07:28:15.815Z,9.52
2019-05-10T07:30:41.943Z,9.57
2019-05-10T07:33:11.421Z,9.61
2019-05-10T07:35:40.799Z,9.65
2019-05-10T07:38:10.126Z,9.68
2019-05-10T07:40:39.459Z,9.73
2019-05-10T07:43:08.837Z,9.77
2019-05-10T07:45:38.162Z,9.80
2019-05-10T07:48:08.025Z,9.85
2019-05-10T07:50:42.396Z,9.89
2019-05-10T07:53:09.697Z,9.90
2019-05-10T07:55:39.082Z,9.91
2019-05-10T07:58:08.429Z,9.94
2019-05-10T08:00:43.880Z,9.94
2019-05-10T08:03:16.137Z,9.96
2019-05-10T08:05:39.945Z,9.98
2019-05-10T08:08:09.642Z,9.98
2019-05-10T08:10:39.454Z,10.00
2019-05-10T08:13:08.954Z,10.04
2019-05-10T08:15:38.664Z,10.08
2019-05-10T08:18:09.867Z,10.10
2019-05-10T08:20:49.335Z,10.12
2019-05-10T08:23:12.890Z,10.16
2019-05-10T08:25:46.827Z,10.21
2019-05-10T08:28:12.752Z,10.24
2019-05-10T08:30:52.247Z,10.30
2019-05-10T08:33:16.188Z,10.37
2019-05-10T08:35:46.459Z,10.45
2019-05-10T08:38:16.165Z,10.57
2019-05-10T08:40:45.561Z,10.71
2019-05-10T08:43:16.794Z,10.81
2019-05-10T08:45:49.397Z,10.91
2019-05-10T08:48:17.057Z,10.99
2019-05-10T08:50:55.955Z,11.05
2019-05-10T08:53:17.495Z,11.12
2019-05-10T08:55:46.859Z,11.16
2019-05-10T08:58:24.457Z,11.21
2019-05-10T09:00:54.818Z,11.28
2019-05-10T09:03:18.823Z,11.34
2019-05-10T09:05:48.267Z,11.40
2019-05-10T09:08:20.360Z,11.51
2019-05-10T09:10:48.669Z,11.60
2019-05-10T09:13:18.041Z,11.63
2019-05-10T09:15:51.593Z,11.63
2019-05-10T09:18:18.461Z,11.64
2019-05-10T09:20:47.813Z,11.65
2019-05-10T09:23:20.067Z,11.68
2019-05-10T09:25:48.256Z,11.67
2019-05-10T09:28:17.584Z,11.67
2019-05-10T09:30:57.511Z,11.69
2019-05-10T09:33:18.011Z,11.73
2019-05-10T09:35:54.184Z,11.87
2019-05-10T09:38:18.574Z,11.94
2019-05-10T09:40:52.742Z,11.98
2019-05-10T09:43:21.218Z,11.98
2019-05-10T09:45:50.077Z,12.05
2019-05-10T09:48:19.446Z,12.09
2019-05-10T09:50:48.812Z,12.12
2019-05-10T09:53:23.641Z,12.12
2019-05-10T09:55:55.185Z,12.16
2019-05-10T09:58:22.284Z,12.17
2019-05-10T10:00:51.388Z,12.24
2019-05-10T10:03:20.726Z,12.24
2019-05-10T10:05:55.225Z,12.27
2019-05-10T10:08:21.187Z,12.34
2019-05-10T10:10:50.551Z,12.63
2019-05-10T10:13:33.968Z,12.63
2019-05-10T10:15:52.454Z,12.77
2019-05-10T10:18:25.337Z,12.77
2019-05-10T10:20:53.150Z,12.83
2019-05-10T10:23:24.815Z,12.84
2019-05-10T10:25:53.609Z,12.88
2019-05-10T10:28:23.009Z,12.88
2019-05-10T10:30:59.081Z,13.11
2019-05-10T10:33:28.087Z,13.20
2019-05-10T10:35:56.551Z,13.22
2019-05-10T10:38:30.366Z,13.22
2019-05-10T10:40:57.630Z,13.30
2019-05-10T10:43:27.404Z,13.37
2019-05-10T10:45:57.389Z,13.38
2019-05-10T10:48:28.522Z,13.38
2019-05-10T10:50:58.799Z,13.37
2019-05-10T10:53:28.531Z,13.29
2019-05-10T10:56:03.632Z,13.29
2019-05-10T10:58:28.932Z,13.18
2019-05-10T11:00:58.286Z,13.00
2019-05-10T11:03:30.394Z,13.00
2019-05-10T11:05:58.702Z,12.96
2019-05-10T11:08:28.071Z,12.84
2019-05-10T11:10:57.397Z,12.79
2019-05-10T11:13:41.637Z,12.76
2019-05-10T11:15:58.841Z,12.78
2019-05-10T11:18:31.576Z,12.95
2019-05-10T11:21:01.975Z,13.10
2019-05-10T11:23:38.999Z,13.10
2019-05-10T11:26:02.240Z,13.18
2019-05-10T11:28:38.942Z,13.18
2019-05-10T11:31:02.670Z,13.27
2019-05-10T11:33:33.689Z,13.27
2019-05-10T11:36:08.399Z,13.31
2019-05-10T11:38:34.137Z,13.34
2019-05-10T11:41:07.131Z,13.34
2019-05-10T11:43:34.554Z,13.42
2019-05-10T11:46:03.909Z,13.48
2019-05-10T11:48:37.234Z,13.61
2019-05-10T11:51:05.650Z,13.75
2019-05-10T11:53:35.443Z,13.89
2019-05-10T11:56:07.874Z,14.02
2019-05-10T11:58:37.810Z,14.16
2019-05-10T12:01:14.677Z,14.22
2019-05-10T12:03:38.370Z,14.29
2019-05-10T12:06:09.079Z,14.33
2019-05-10T12:08:41.544Z,14.38
2019-05-10T12:11:25.505Z,14.45
2019-05-10T12:13:40.923Z,14.53
2019-05-10T12:16:12.340Z,14.58
2019-05-10T12:18:46.531Z,14.61
2019-05-10T12:21:12.478Z,14.70
2019-05-10T12:23:50.278Z,14.80
2019-05-10T12:27:13.340Z,14.88
2019-05-10T12:28:43.968Z,15.02
2019-05-10T12:31:16.956Z,15.07
2019-05-10T12:33:45.410Z,15.12
2019-05-10T12:36:23.699Z,15.17
2019-05-10T12:38:45.984Z,15.27
2019-05-10T12:41:15.348Z,15.33
2019-05-10T12:43:48.037Z,15.44
2019-05-10T12:46:15.766Z,15.47
2019-05-10T12:48:45.088Z,15.47
2019-05-10T12:51:16.331Z,15.39
2019-05-10T12:53:49.252Z,15.32
2019-05-10T12:56:16.586Z,15.28
2019-05-10T12:58:56.587Z,15.32
2019-05-10T13:01:16.977Z,15.23
2019-05-10T13:03:46.334Z,15.27
2019-05-10T13:06:19.322Z,15.47
2019-05-10T13:08:46.750Z,15.64
2019-05-10T13:11:18.877Z,15.74
2019-05-10T13:13:47.186Z,15.85
2019-05-10T13:16:16.555Z,15.96
2019-05-10T13:18:51.696Z,16.04
2019-05-10T13:21:20.663Z,16.11
2019-05-10T13:23:53.320Z,16.23
2019-05-10T13:26:19.132Z,16.37
2019-05-10T13:28:48.473Z,16.47
2019-05-10T13:31:17.831Z,16.51
2019-05-10T13:33:47.185Z,16.34
2019-05-10T13:36:16.523Z,16.24
2019-05-10T13:38:49.161Z,16.30
2019-05-10T13:41:17.762Z,16.30
2019-05-10T13:43:48.006Z,16.14
2019-05-10T13:46:17.354Z,16.15
2019-05-10T13:48:46.707Z,16.13
2019-05-10T13:51:16.053Z,16.26
2019-05-10T13:53:45.384Z,16.15
2019-05-10T13:56:14.733Z,16.01
2019-05-10T13:58:44.077Z,15.85
2019-05-10T14:01:14.858Z,15.85
2019-05-10T14:03:48.748Z,15.80
2019-05-10T14:06:15.518Z,15.87
2019-05-10T14:08:48.298Z,16.49
2019-05-10T14:11:15.956Z,16.49
2019-05-10T14:13:45.397Z,16.70
2019-05-10T14:16:19.470Z,16.96
2019-05-10T14:18:45.822Z,17.15
2019-05-10T14:21:15.183Z,17.23
2019-05-10T14:23:44.526Z,17.32
2019-05-10T14:26:16.021Z,17.33
2019-05-10T14:28:47.380Z,17.03
2019-05-10T14:31:15.996Z,16.82
2019-05-10T14:33:49.685Z,16.75
2019-05-10T14:36:16.436Z,16.72
2019-05-10T14:38:47.275Z,16.45
2019-05-10T14:41:16.833Z,16.45
2019-05-10T14:43:46.167Z,16.27
2019-05-10T14:46:15.523Z,16.08
2019-05-10T14:48:44.868Z,15.98
2019-05-10T14:51:14.222Z,15.87
2019-05-10T14:53:43.605Z,15.71
2019-05-10T14:56:14.153Z,15.68
2019-05-10T14:58:44.007Z,15.64
2019-05-10T15:01:13.377Z,15.67
2019-05-10T15:03:45.891Z,15.88
2019-05-10T15:06:13.793Z,16.37
2019-05-10T15:08:43.135Z,16.53
2019-05-10T15:11:12.502Z,16.53
2019-05-10T15:13:41.873Z,16.78
2019-05-10T15:16:13.108Z,16.78
2019-05-10T15:18:42.362Z,16.72
2019-05-10T15:21:11.737Z,16.72
2019-05-10T15:23:41.091Z,16.58
2019-05-10T15:26:12.059Z,16.44
2019-05-10T15:28:42.609Z,16.25
2019-05-10T15:31:12.097Z,16.12
2019-05-10T15:33:41.480Z,15.97
2019-05-10T15:36:10.806Z,15.89
2019-05-10T15:38:49.797Z,15.75
2019-05-10T15:41:11.267Z,15.63
2019-05-10T15:43:40.627Z,15.58
2019-05-10T15:46:09.972Z,15.62
2019-05-10T15:48:41.682Z,15.54
2019-05-10T15:51:11.291Z,15.47
2019-05-10T15:53:41.446Z,15.41
2019-05-10T15:56:10.807Z,15.42
2019-05-10T15:58:42.358Z,15.34
2019-05-10T16:01:14.173Z,15.34
2019-05-10T16:03:42.383Z,15.32
2019-05-10T16:06:11.729Z,15.55
2019-05-10T16:08:41.120Z,15.61
2019-05-10T16:11:18.005Z,15.61
2019-05-10T16:13:41.568Z,15.61
2019-05-10T16:16:10.947Z,15.67
2019-05-10T16:18:41.702Z,16.01
2019-05-10T16:21:15.121Z,16.57
2019-05-10T16:23:46.609Z,16.80
2019-05-10T16:26:17.480Z,16.80
2019-05-10T16:28:44.397Z,16.77
2019-05-10T16:31:13.739Z,16.94
2019-05-10T16:33:43.123Z,16.94
2019-05-10T16:36:12.450Z,17.11
2019-05-10T16:38:41.863Z,17.17
2019-05-10T16:41:11.248Z,17.15
2019-05-10T16:43:40.607Z,17.04
2019-05-10T16:46:10.251Z,17.26
2019-05-10T16:48:39.627Z,17.72
2019-05-10T16:51:10.153Z,18.12
2019-05-10T16:53:43.698Z,18.24
2019-05-10T16:56:13.403Z,18.47
2019-05-10T16:58:42.284Z,18.47
2019-05-10T17:01:11.703Z,18.38
2019-05-10T17:03:41.084Z,18.43
2019-05-10T17:06:10.491Z,18.48
2019-05-10T17:08:39.897Z,18.70
2019-05-10T17:11:10.190Z,18.86
2019-05-10T17:13:41.568Z,18.75
2019-05-10T17:16:16.380Z,18.47
2019-05-10T17:18:42.665Z,18.15
2019-05-10T17:21:12.027Z,18.01
2019-05-10T17:23:46.272Z,17.87
2019-05-10T17:26:12.512Z,17.74
2019-05-10T17:28:41.915Z,17.67
2019-05-10T17:31:11.347Z,17.63
2019-05-10T17:33:42.806Z,17.67
2019-05-10T17:36:14.599Z,17.59
2019-05-10T17:38:47.149Z,17.45
2019-05-10T17:41:14.090Z,17.34
2019-05-10T17:43:43.473Z,17.41
2019-05-10T17:46:18.522Z,17.38
2019-05-10T17:48:47.500Z,17.41
2019-05-10T17:51:15.069Z,17.41
2019-05-10T17:53:44.443Z,17.31
2019-05-10T17:56:13.821Z,17.14
2019-05-10T17:58:43.198Z,17.09
2019-05-10T18:01:12.557Z,17.07
2019-05-10T18:03:41.963Z,17.26
2019-05-10T18:06:23.085Z,17.43
2019-05-10T18:08:42.452Z,17.83
2019-05-10T18:11:11.839Z,18.28
2019-05-10T18:13:42.554Z,18.59
2019-05-10T18:16:11.946Z,18.88
2019-05-10T18:18:46.357Z,19.22
2019-05-10T18:21:15.973Z,19.50
2019-05-10T18:23:43.573Z,19.68
2019-05-10T18:26:12.929Z,19.83
2019-05-10T18:28:42.290Z,19.79
2019-05-10T18:31:11.637Z,19.70
2019-05-10T18:33:44.736Z,19.52
2019-05-10T18:36:12.078Z,19.21
2019-05-10T18:38:41.427Z,18.84
2019-05-10T18:41:11.840Z,18.47
2019-05-10T18:43:42.902Z,18.17
2019-05-10T18:46:12.360Z,17.82
2019-05-10T18:48:41.724Z,17.44
2019-05-10T18:51:11.111Z,17.11
2019-05-10T18:53:40.468Z,16.78
2019-05-10T18:56:09.846Z,16.51
2019-05-10T18:58:40.031Z,16.27
2019-05-10T19:01:09.415Z,16.04
2019-05-10T19:03:38.759Z,15.83
2019-05-10T19:06:10.940Z,15.66
2019-05-10T19:08:39.226Z,15.53
2019-05-10T19:11:08.800Z,15.39
2019-05-10T19:13:46.728Z,15.26
2019-05-10T19:16:09.217Z,15.15
2019-05-10T19:18:38.602Z,15.06
2019-05-10T19:21:08.014Z,14.81
2019-05-10T19:23:37.359Z,14.81
2019-05-10T19:26:06.704Z,14.62
2019-05-10T19:28:36.166Z,14.62
2019-05-10T19:31:05.516Z,14.52
2019-05-10T19:33:37.827Z,14.40
2019-05-10T19:36:12.558Z,14.26
2019-05-10T19:38:37.036Z,14.14
2019-05-10T19:41:06.431Z,14.03
2019-05-10T19:43:35.786Z,13.94
2019-05-10T19:46:05.116Z,13.87
2019-05-10T19:48:35.823Z,13.81
2019-05-10T19:51:09.605Z,13.74
2019-05-10T19:53:42.279Z,13.64
2019-05-10T19:56:07.780Z,13.56
2019-05-10T19:58:37.171Z,13.48
2019-05-10T20:01:06.533Z,13.38
2019-05-10T20:03:35.903Z,13.28
2019-05-10T20:06:05.280Z,13.21
2019-05-10T20:08:34.659Z,13.15
2019-05-10T20:11:04.001Z,13.09
2019-05-10T20:13:33.354Z,12.96
2019-05-10T20:16:02.707Z,12.96
2019-05-10T20:18:32.111Z,12.87
2019-05-10T20:21:01.500Z,12.83
2019-05-10T20:23:30.905Z,12.76
2019-05-10T20:26:00.466Z,12.69
2019-05-10T20:28:29.845Z,12.64
2019-05-10T20:30:59.225Z,12.58
2019-05-10T20:33:28.628Z,12.58
2019-05-10T20:35:58.005Z,12.54
2019-05-10T20:38:27.386Z,12.48
2019-05-10T20:40:56.707Z,12.48
2019-05-10T20:43:26.061Z,12.45
2019-05-10T20:45:55.455Z,12.38
2019-05-10T20:48:24.827Z,12.33
2019-05-10T20:50:54.178Z,12.33
2019-05-10T20:53:23.567Z,12.32
2019-05-10T20:55:52.955Z,12.30
2019-05-10T20:58:22.347Z,12.26
2019-05-10T21:00:51.703Z,12.21
2019-05-10T21:03:21.108Z,12.18
2019-05-10T21:05:50.499Z,12.18
2019-05-10T21:08:19.842Z,12.15
2019-05-10T21:10:49.217Z,12.15
2019-05-10T21:13:18.580Z,12.02
2019-05-10T21:15:47.960Z,12.02
2019-05-10T21:18:17.291Z,11.98
2019-05-10T21:20:46.697Z,11.95
2019-05-10T21:23:16.090Z,11.93
2019-05-10T21:25:45.436Z,11.81
2019-05-10T21:28:14.805Z,11.79
2019-05-10T21:30:44.125Z,11.78
2019-05-10T21:33:13.448Z,11.70
2019-05-10T21:35:42.841Z,11.70
2019-05-10T21:38:12.187Z,11.56
2019-05-10T21:40:41.543Z,11.56
2019-05-10T21:43:10.906Z,11.48
2019-05-10T21:45:40.307Z,11.36
2019-05-10T21:48:09.662Z,11.27
2019-05-10T21:50:39.040Z,11.21
2019-05-10T21:53:08.424Z,11.21
2019-05-10T21:55:37.782Z,11.16
2019-05-10T21:58:07.175Z,11.12
2019-05-10T22:00:39.954Z,11.06
2019-05-10T22:03:09.306Z,11.02
2019-05-10T22:05:38.697Z,11.00
2019-05-10T22:08:08.039Z,11.01
2019-05-10T22:10:37.432Z,10.98
2019-05-10T22:13:06.820Z,10.96
2019-05-10T22:15:36.209Z,10.93
2019-05-10T22:18:05.579Z,10.86
2019-05-10T22:20:34.990Z,10.86
2019-05-10T22:23:04.456Z,10.82
2019-05-10T22:25:33.822Z,10.77
2019-05-10T22:28:03.194Z,10.71
2019-05-10T22:30:32.606Z,10.65
2019-05-10T22:33:01.939Z,10.66
2019-05-10T22:35:31.366Z,10.66
2019-05-10T22:38:00.721Z,10.67
2019-05-10T22:40:30.073Z,10.65
2019-05-10T22:42:59.453Z,10.65
2019-05-10T22:45:28.785Z,10.63
2019-05-10T22:47:58.170Z,10.59
2019-05-10T22:50:27.534Z,10.57
2019-05-10T22:52:56.883Z,10.57
2019-05-10T22:55:29.035Z,10.58
2019-05-10T22:57:58.351Z,10.49
2019-05-10T23:00:27.932Z,10.49
2019-05-10T23:02:57.295Z,10.45
2019-05-10T23:05:26.654Z,10.40
2019-05-10T23:07:56.013Z,10.39
2019-05-10T23:10:25.403Z,10.36
2019-05-10T23:12:54.752Z,10.30
2019-05-10T23:15:24.087Z,10.28
2019-05-10T23:17:53.479Z,10.29
2019-05-10T23:20:22.885Z,10.30
2019-05-10T23:22:52.285Z,10.27
2019-05-10T23:25:21.645Z,10.25
2019-05-10T23:27:51.024Z,10.22
2019-05-10T23:30:20.363Z,10.22
2019-05-10T23:32:49.714Z,10.24
2019-05-10T23:35:19.080Z,10.24
2019-05-10T23:37:48.410Z,10.23
2019-05-10T23:40:17.777Z,10.20
2019-05-10T23:42:47.158Z,10.18
2019-05-10T23:45:16.494Z,10.17
2019-05-10T23:47:45.848Z,10.14
2019-05-10T23:50:15.526Z,10.13
2019-05-10T23:52:44.901Z,10.12
2019-05-10T23:55:14.276Z,10.11
2019-05-10T23:57:43.622Z,10.11
